메인 페이지
METAR-TAF:

METAR-TAF

공항 :

리브르빌, 가봉

위도: 00-27N, 경도: 009-25E, 고도: 12m

현재 날씨관측

예보는 1 시간 1분 전, 00:00시(UTC)에 발표되었습니다.
서남서5kt남서풍과 풍을 오가는
온도 28°C
습도 84%
기압 1014 hPa
시정 10km 이상
고도 1000ft 상공 구름 조금
고도 2000ft 상공 구름 조금, 적란운.

METAR: FOOL 100000Z 25005KT 220V280 9999 FEW010 FEW020CB 28/25 Q1014 NOSIG

시각: 02:01 (01:01 UTC)

예보

예보는 8 시간 1분 전, 17:00시(UTC)에 발표되었습니다.
예보 대상 시간: 09일 18시부터 10일 24시까지 (UTC)
5kt
시정 10km 이상
고도 1200ft 상공 구름 보통
고도 2000ft 상공 구름 조금, 적란운.
확률 30% :
일시적
10일 04시부터 10일 07시까지 (UTC)
시정: 4000m
박무

TAF: FOOL 091700Z 0918/1024 27005KT 9999 SCT012 FEW020CB PROB30 TEMPO 1004/1007 4000 BR

4,000개 이상의 공항 관측 자료 및 예보 (METAR 및 TAF 보고).

지도상에서 검색 가능한 기상관측소가 노란 점과 빨간 점으로 표시되어 있습니다.

기상관측소 명을 보려면 표시 위로 마우스를 이동하세요.

날씨 관측과 예보를 보려면 클릭하세요.

지도 변경 : 확대하려면 엑스 표시가 있는 녹색 버튼, 축소하려면 빼기 표시가 있는 녹색 버튼, 다음 페이지의 지도를 보려면 녹색 화살표를 클릭하세요.


METAR-TAF: